createdAt,value
2022-11-26T00:00:28.260Z,1024.12
2022-11-26T00:01:28.248Z,1024.16
2022-11-26T00:02:28.557Z,1024.21
2022-11-26T00:03:28.349Z,1024.13
2022-11-26T00:04:28.246Z,1024.16
2022-11-26T00:05:28.266Z,1024.11
2022-11-26T00:06:28.272Z,1024.13
2022-11-26T00:07:28.326Z,1024.13
2022-11-26T00:08:28.252Z,1024.11
2022-11-26T00:09:28.261Z,1024.15
2022-11-26T00:10:28.261Z,1024.22
2022-11-26T00:11:28.248Z,1024.17
2022-11-26T00:12:28.255Z,1024.19
2022-11-26T00:13:28.250Z,1024.22
2022-11-26T00:14:28.249Z,1024.12
2022-11-26T00:15:28.266Z,1024.22
2022-11-26T00:16:28.296Z,1024.2
2022-11-26T00:17:28.247Z,1024.16
2022-11-26T00:18:28.266Z,1024.25
2022-11-26T00:19:28.243Z,1024.29
2022-11-26T00:20:28.253Z,1024.26
2022-11-26T00:21:28.246Z,1024.25
2022-11-26T00:22:28.229Z,1024.24
2022-11-26T00:23:28.247Z,1024.27
2022-11-26T00:24:28.248Z,1024.27
2022-11-26T00:25:28.270Z,1024.22
2022-11-26T00:26:28.249Z,1024.26
2022-11-26T00:27:28.246Z,1024.35
2022-11-26T00:28:28.322Z,1024.32
2022-11-26T00:29:28.244Z,1024.24
2022-11-26T00:30:28.271Z,1024.25
2022-11-26T00:31:28.245Z,1024.3
2022-11-26T00:32:28.231Z,1024.38
2022-11-26T00:33:28.231Z,1024.38
2022-11-26T00:34:28.243Z,1024.34
2022-11-26T00:35:28.281Z,1024.34
2022-11-26T00:36:28.239Z,1024.42
2022-11-26T00:37:28.233Z,1024.36
2022-11-26T00:38:28.238Z,1024.36
2022-11-26T00:39:28.235Z,1024.39
2022-11-26T00:40:28.259Z,1024.34
2022-11-26T00:41:28.228Z,1024.36
2022-11-26T00:42:28.232Z,1024.37
2022-11-26T00:43:28.235Z,1024.41
2022-11-26T00:44:28.226Z,1024.36
2022-11-26T00:45:28.350Z,1024.37
2022-11-26T00:46:28.241Z,1024.39
2022-11-26T00:47:28.239Z,1024.41
2022-11-26T00:48:28.238Z,1024.4
2022-11-26T00:49:28.233Z,1024.37
2022-11-26T00:50:28.275Z,1024.44
2022-11-26T00:51:28.227Z,1024.42
2022-11-26T00:52:28.231Z,1024.41
2022-11-26T00:53:28.229Z,1024.39
2022-11-26T00:54:28.230Z,1024.41
2022-11-26T00:55:28.262Z,1024.45
2022-11-26T00:56:28.263Z,1024.39
2022-11-26T00:57:28.234Z,1024.45
2022-11-26T00:58:28.268Z,1024.46
2022-11-26T00:59:28.258Z,1024.44
2022-11-26T01:00:28.249Z,1024.47
2022-11-26T01:01:28.367Z,1024.46
2022-11-26T01:02:28.275Z,1024.5
2022-11-26T01:03:28.246Z,1024.54
2022-11-26T01:04:28.244Z,1024.53
2022-11-26T01:05:28.266Z,1024.56
2022-11-26T01:06:28.251Z,1024.61
2022-11-26T01:07:28.287Z,1024.65
2022-11-26T01:08:28.244Z,1024.66
2022-11-26T01:09:28.251Z,1024.66
2022-11-26T01:10:28.272Z,1024.64
2022-11-26T01:11:28.255Z,1024.68
2022-11-26T01:12:28.261Z,1024.63
2022-11-26T01:13:28.240Z,1024.66
2022-11-26T01:14:28.240Z,1024.68
2022-11-26T01:15:28.260Z,1024.71
2022-11-26T01:16:28.295Z,1024.66
2022-11-26T01:17:28.252Z,1024.69
2022-11-26T01:18:28.241Z,1024.71
2022-11-26T01:19:28.319Z,1024.75
2022-11-26T01:20:28.268Z,1024.76
2022-11-26T01:21:28.250Z,1024.73
2022-11-26T01:22:28.247Z,1024.74
2022-11-26T01:23:28.243Z,1024.76
2022-11-26T01:24:28.249Z,1024.77
2022-11-26T01:25:28.255Z,1024.79
2022-11-26T01:26:28.247Z,1024.8
2022-11-26T01:27:28.247Z,1024.75
2022-11-26T01:28:28.241Z,1024.78
2022-11-26T01:29:28.250Z,1024.81
2022-11-26T01:30:28.253Z,1024.82
2022-11-26T01:31:28.278Z,1024.84
2022-11-26T01:32:29.577Z,1024.84
2022-11-26T01:33:28.247Z,1024.8
2022-11-26T01:34:28.244Z,1024.8
2022-11-26T01:35:28.247Z,1024.86
2022-11-26T01:36:28.252Z,1024.87
2022-11-26T01:37:28.244Z,1024.84
2022-11-26T01:38:28.251Z,1024.85
2022-11-26T01:39:28.253Z,1024.89
2022-11-26T01:40:28.257Z,1024.87
2022-11-26T01:41:28.247Z,1024.86
2022-11-26T01:42:28.229Z,1024.87
2022-11-26T01:43:28.241Z,1024.89
2022-11-26T01:44:28.252Z,1024.91
2022-11-26T01:45:28.292Z,1024.88
2022-11-26T01:46:28.255Z,1024.85
2022-11-26T01:47:28.249Z,1024.89
2022-11-26T01:48:28.227Z,1024.88
2022-11-26T01:49:28.250Z,1024.92
2022-11-26T01:50:28.248Z,1024.91
2022-11-26T01:51:28.233Z,1024.88
2022-11-26T01:52:28.236Z,1024.93
2022-11-26T01:53:28.235Z,1024.96
2022-11-26T01:54:28.238Z,1024.93
2022-11-26T01:55:28.270Z,1024.98
2022-11-26T01:56:28.231Z,1024.97
2022-11-26T01:57:28.333Z,1024.92
2022-11-26T01:58:28.236Z,1024.93
2022-11-26T01:59:28.232Z,1024.99
2022-11-26T02:00:28.306Z,1024.98
2022-11-26T02:01:28.322Z,1025.01
2022-11-26T02:02:28.321Z,1024.99
2022-11-26T02:03:28.236Z,1025
2022-11-26T02:04:28.234Z,1025.02
2022-11-26T02:05:28.257Z,1025.02
2022-11-26T02:06:28.229Z,1025
2022-11-26T02:07:28.281Z,1025.03
2022-11-26T02:08:28.247Z,1025.04
2022-11-26T02:09:28.236Z,1025.04
2022-11-26T02:10:28.259Z,1025.06
2022-11-26T02:11:28.255Z,1025.13
2022-11-26T02:12:28.235Z,1025.12
2022-11-26T02:13:28.253Z,1025.15
2022-11-26T02:14:28.256Z,1025.09
2022-11-26T02:15:28.260Z,1025.16
2022-11-26T02:16:28.291Z,1025.18
2022-11-26T02:17:28.245Z,1025.13
2022-11-26T02:18:28.241Z,1025.17
2022-11-26T02:19:28.250Z,1025.21
2022-11-26T02:20:28.256Z,1025.17
2022-11-26T02:21:28.247Z,1025.19
2022-11-26T02:22:28.249Z,1025.2
2022-11-26T02:23:28.256Z,1025.2
2022-11-26T02:24:28.251Z,1025.16
2022-11-26T02:25:28.262Z,1025.15
2022-11-26T02:26:28.247Z,1025.19
2022-11-26T02:27:28.242Z,1025.16
2022-11-26T02:28:28.296Z,1025.19
2022-11-26T02:29:28.228Z,1025.2
2022-11-26T02:30:28.262Z,1025.22
2022-11-26T02:31:28.309Z,1025.21
2022-11-26T02:32:28.246Z,1025.19
2022-11-26T02:33:28.246Z,1025.23
2022-11-26T02:34:30.605Z,1025.29
2022-11-26T02:35:28.268Z,1025.24
2022-11-26T02:36:28.248Z,1025.29
2022-11-26T02:37:28.246Z,1025.26
2022-11-26T02:38:28.242Z,1025.29
2022-11-26T02:39:28.245Z,1025.27
2022-11-26T02:40:28.250Z,1025.32
2022-11-26T02:41:28.244Z,1025.3
2022-11-26T02:42:28.250Z,1025.33
2022-11-26T02:43:28.258Z,1025.36
2022-11-26T02:44:28.260Z,1025.39
2022-11-26T02:45:28.322Z,1025.41
2022-11-26T02:46:28.246Z,1025.41
2022-11-26T02:47:28.282Z,1025.44
2022-11-26T02:48:28.248Z,1025.42
2022-11-26T02:49:28.234Z,1025.49
2022-11-26T02:50:28.255Z,1025.46
2022-11-26T02:53:28.254Z,1025.45
2022-11-26T02:54:28.250Z,1025.5
2022-11-26T02:55:28.248Z,1025.47
2022-11-26T02:56:28.261Z,1025.44
2022-11-26T02:57:28.236Z,1025.52
2022-11-26T02:58:28.234Z,1025.56
2022-11-26T02:59:28.235Z,1025.59
2022-11-26T03:00:28.256Z,1025.63
2022-11-26T03:01:28.303Z,1025.56
2022-11-26T03:02:28.239Z,1025.59
2022-11-26T03:03:28.277Z,1025.61
2022-11-26T03:04:28.317Z,1025.58
2022-11-26T03:05:28.248Z,1025.65
2022-11-26T03:06:28.229Z,1025.67
2022-11-26T03:07:28.262Z,1025.62
2022-11-26T03:08:28.233Z,1025.65
2022-11-26T03:09:28.237Z,1025.65
2022-11-26T03:10:28.263Z,1025.61
2022-11-26T03:11:28.315Z,1025.62
2022-11-26T03:12:28.263Z,1025.6
2022-11-26T03:13:28.245Z,1025.59
2022-11-26T03:14:28.235Z,1025.63
2022-11-26T03:15:28.259Z,1025.59
2022-11-26T03:16:28.262Z,1025.67
2022-11-26T03:17:28.232Z,1025.63
2022-11-26T03:18:28.242Z,1025.66
2022-11-26T03:19:28.243Z,1025.48
2022-11-26T03:20:28.248Z,1025.49
2022-11-26T03:21:28.250Z,1025.5
2022-11-26T03:22:28.255Z,1025.49
2022-11-26T03:23:28.250Z,1025.52
2022-11-26T03:24:28.234Z,1025.56
2022-11-26T03:25:28.256Z,1025.54
2022-11-26T03:26:28.247Z,1025.59
2022-11-26T03:27:28.249Z,1025.64
2022-11-26T03:28:28.242Z,1025.6
2022-11-26T03:29:28.248Z,1025.64
2022-11-26T03:30:28.257Z,1025.64
2022-11-26T03:31:28.366Z,1025.64
2022-11-26T03:32:28.256Z,1025.6
2022-11-26T03:33:28.252Z,1025.62
2022-11-26T03:34:28.249Z,1025.64
2022-11-26T03:35:28.275Z,1025.65
2022-11-26T03:36:28.252Z,1025.72
2022-11-26T03:37:28.248Z,1025.78
2022-11-26T03:38:28.251Z,1025.83
2022-11-26T03:39:28.248Z,1025.82
2022-11-26T03:40:28.271Z,1025.81
2022-11-26T03:41:28.251Z,1025.8
2022-11-26T03:42:28.259Z,1025.89
2022-11-26T03:43:28.254Z,1025.79
2022-11-26T03:44:28.253Z,1025.82
2022-11-26T03:45:28.304Z,1025.86
2022-11-26T03:46:28.247Z,1025.86
2022-11-26T03:47:28.248Z,1025.87
2022-11-26T03:48:28.248Z,1025.83
2022-11-26T03:49:28.252Z,1025.88
2022-11-26T03:50:28.248Z,1025.91
2022-11-26T03:51:28.261Z,1025.89
2022-11-26T03:52:28.238Z,1025.86
2022-11-26T03:53:28.259Z,1025.82
2022-11-26T03:54:28.265Z,1025.85
2022-11-26T03:55:28.290Z,1025.87
2022-11-26T03:56:28.257Z,1025.9
2022-11-26T03:57:28.251Z,1025.93
2022-11-26T03:58:28.251Z,1025.94
2022-11-26T03:59:28.231Z,1025.9
2022-11-26T04:00:28.284Z,1025.9
2022-11-26T04:01:28.340Z,1025.87
2022-11-26T04:02:28.252Z,1025.89
2022-11-26T04:03:28.274Z,1025.93
2022-11-26T04:04:28.235Z,1025.96
2022-11-26T04:05:28.252Z,1025.92
2022-11-26T04:06:28.236Z,1025.9
2022-11-26T04:07:28.326Z,1025.94
2022-11-26T04:08:28.240Z,1025.93
2022-11-26T04:09:28.241Z,1025.91
2022-11-26T04:10:28.249Z,1025.95
2022-11-26T04:11:28.244Z,1025.97
2022-11-26T04:12:28.275Z,1025.98
2022-11-26T04:13:28.239Z,1026.03
2022-11-26T04:14:28.256Z,1026.11
2022-11-26T04:15:28.250Z,1026.06
2022-11-26T04:16:28.266Z,1026.1
2022-11-26T04:17:28.234Z,1026.09
2022-11-26T04:18:28.240Z,1026.16
2022-11-26T04:19:28.234Z,1026.15
2022-11-26T04:20:28.263Z,1026.16
2022-11-26T04:21:28.240Z,1026.16
2022-11-26T04:22:28.268Z,1026.22
2022-11-26T04:23:28.255Z,1026.21
2022-11-26T04:24:28.252Z,1026.21
2022-11-26T04:25:28.260Z,1026.26
2022-11-26T04:26:28.295Z,1026.25
2022-11-26T04:27:28.261Z,1026.28
2022-11-26T04:28:28.247Z,1026.29
2022-11-26T04:29:28.258Z,1026.3
2022-11-26T04:30:30.029Z,1026.35
2022-11-26T04:31:28.285Z,1026.33
2022-11-26T04:32:28.334Z,1026.31
2022-11-26T04:33:28.249Z,1026.33
2022-11-26T04:34:28.253Z,1026.32
2022-11-26T04:35:28.270Z,1026.33
2022-11-26T04:36:28.256Z,1026.38
2022-11-26T04:37:28.253Z,1026.37
2022-11-26T04:38:28.253Z,1026.34
2022-11-26T04:39:28.250Z,1026.37
2022-11-26T04:40:28.264Z,1026.39
2022-11-26T04:41:28.252Z,1026.46
2022-11-26T04:42:28.258Z,1026.41
2022-11-26T04:43:28.251Z,1026.35
2022-11-26T04:44:28.255Z,1026.38
2022-11-26T04:45:28.337Z,1026.45
2022-11-26T04:46:28.257Z,1026.45
2022-11-26T04:47:28.252Z,1026.53
2022-11-26T04:48:28.248Z,1026.5
2022-11-26T04:49:28.236Z,1026.53
2022-11-26T04:50:28.253Z,1026.49
2022-11-26T04:51:28.249Z,1026.52
2022-11-26T04:52:28.254Z,1026.5
2022-11-26T04:53:28.277Z,1026.57
2022-11-26T04:54:28.255Z,1026.55
2022-11-26T04:55:28.271Z,1026.57
2022-11-26T04:56:28.252Z,1026.58
2022-11-26T04:57:28.252Z,1026.61
2022-11-26T04:58:28.242Z,1026.64
2022-11-26T04:59:28.263Z,1026.64
2022-11-26T05:00:28.254Z,1026.59
2022-11-26T05:01:28.304Z,1026.65
2022-11-26T05:02:28.276Z,1026.65
2022-11-26T05:03:28.249Z,1026.68
2022-11-26T05:04:28.252Z,1026.69
2022-11-26T05:05:28.269Z,1026.73
2022-11-26T05:06:28.238Z,1026.72
2022-11-26T05:07:28.327Z,1026.75
2022-11-26T05:08:28.248Z,1026.79
2022-11-26T05:09:28.238Z,1026.79
2022-11-26T05:10:28.266Z,1026.81
2022-11-26T05:11:28.236Z,1026.81
2022-11-26T05:12:28.228Z,1026.82
2022-11-26T05:13:28.271Z,1026.79
2022-11-26T05:14:28.234Z,1026.82
2022-11-26T05:15:28.258Z,1026.82
2022-11-26T05:16:28.299Z,1026.86
2022-11-26T05:17:28.238Z,1026.87
2022-11-26T05:18:28.231Z,1026.86
2022-11-26T05:19:28.238Z,1026.92
2022-11-26T05:20:28.253Z,1026.89
2022-11-26T05:21:28.241Z,1026.93
2022-11-26T05:22:28.242Z,1026.91
2022-11-26T05:23:28.239Z,1026.89
2022-11-26T05:24:28.247Z,1026.91
2022-11-26T05:25:28.248Z,1026.95
2022-11-26T05:26:28.237Z,1026.94
2022-11-26T05:27:28.230Z,1026.97
2022-11-26T05:28:28.243Z,1026.93
2022-11-26T05:29:28.229Z,1026.96
2022-11-26T05:30:28.274Z,1027
2022-11-26T05:31:28.271Z,1027.01
2022-11-26T05:32:28.254Z,1027.01
2022-11-26T05:33:28.257Z,1027.01
2022-11-26T05:34:28.258Z,1027.02
2022-11-26T05:35:28.260Z,1027.04
2022-11-26T05:36:28.262Z,1027.02
2022-11-26T05:37:28.256Z,1027.05
2022-11-26T05:38:28.233Z,1027.02
2022-11-26T05:39:28.247Z,1027.17
2022-11-26T05:40:28.269Z,1027.13
2022-11-26T05:41:28.251Z,1027.2
2022-11-26T05:42:28.254Z,1027.14
2022-11-26T05:43:28.257Z,1027.17
2022-11-26T05:44:28.251Z,1027.21
2022-11-26T05:45:28.275Z,1027.2
2022-11-26T05:46:28.254Z,1027.18
2022-11-26T05:47:28.231Z,1027.24
2022-11-26T05:48:28.248Z,1027.26
2022-11-26T05:49:28.245Z,1027.21
2022-11-26T05:50:28.267Z,1027.27
2022-11-26T05:51:28.254Z,1027.27
2022-11-26T05:52:28.244Z,1027.29
2022-11-26T05:53:28.246Z,1027.27
2022-11-26T05:54:28.253Z,1027.28
2022-11-26T05:55:28.267Z,1027.27
2022-11-26T05:56:28.244Z,1027.27
2022-11-26T05:57:28.250Z,1027.31
2022-11-26T05:58:28.237Z,1027.32
2022-11-26T05:59:28.250Z,1027.27
2022-11-26T06:00:28.290Z,1027.37
2022-11-26T06:01:28.268Z,1027.37
2022-11-26T06:02:28.375Z,1027.35
2022-11-26T06:03:28.407Z,1027.36
2022-11-26T06:04:28.242Z,1027.4
2022-11-26T06:05:28.258Z,1027.38
2022-11-26T06:06:28.241Z,1027.38
2022-11-26T06:07:28.292Z,1027.41
2022-11-26T06:08:28.255Z,1027.38
2022-11-26T06:09:28.250Z,1027.38
2022-11-26T06:10:28.262Z,1027.4
2022-11-26T06:11:28.247Z,1027.43
2022-11-26T06:12:28.245Z,1027.45
2022-11-26T06:13:28.245Z,1027.45
2022-11-26T06:14:28.248Z,1027.47
2022-11-26T06:15:28.264Z,1027.42
2022-11-26T06:16:28.301Z,1027.47
2022-11-26T06:17:28.250Z,1027.49
2022-11-26T06:18:28.254Z,1027.47
2022-11-26T06:19:28.251Z,1027.49
2022-11-26T06:20:28.260Z,1027.47
2022-11-26T06:21:28.241Z,1027.59
2022-11-26T06:22:28.248Z,1027.53
2022-11-26T06:23:28.243Z,1027.58
2022-11-26T06:24:28.259Z,1027.59
2022-11-26T06:25:28.246Z,1027.63
2022-11-26T06:26:28.232Z,1027.65
2022-11-26T06:27:28.235Z,1027.7
2022-11-26T06:28:28.236Z,1027.67
2022-11-26T06:29:28.464Z,1027.75
2022-11-26T06:30:28.298Z,1027.74
2022-11-26T06:31:28.273Z,1027.76
2022-11-26T06:32:28.237Z,1027.75
2022-11-26T06:33:28.230Z,1027.77
2022-11-26T06:34:28.237Z,1027.77
2022-11-26T06:35:28.264Z,1027.79
2022-11-26T06:36:28.243Z,1027.75
2022-11-26T06:37:28.241Z,1027.81
2022-11-26T06:38:28.264Z,1027.74
2022-11-26T06:39:28.228Z,1027.82
2022-11-26T06:40:28.261Z,1027.78
2022-11-26T06:41:28.302Z,1027.81
2022-11-26T06:42:28.236Z,1027.83
2022-11-26T06:43:28.235Z,1027.85
2022-11-26T06:44:28.247Z,1027.79
2022-11-26T06:45:28.279Z,1027.84
2022-11-26T06:46:28.240Z,1027.81
2022-11-26T06:47:28.327Z,1027.84
2022-11-26T06:48:28.246Z,1027.88
2022-11-26T06:49:28.236Z,1027.9
2022-11-26T06:50:28.264Z,1027.87
2022-11-26T06:51:28.254Z,1027.92
2022-11-26T06:52:28.245Z,1027.9
2022-11-26T06:53:28.242Z,1027.85
2022-11-26T06:54:28.249Z,1027.9
2022-11-26T06:55:28.267Z,1027.88
2022-11-26T06:56:28.259Z,1027.92
2022-11-26T06:57:28.241Z,1027.92
2022-11-26T06:58:28.251Z,1027.98
2022-11-26T06:59:28.244Z,1027.93
2022-11-26T07:00:28.257Z,1027.99
2022-11-26T07:01:28.324Z,1027.94
2022-11-26T07:02:28.289Z,1027.92
2022-11-26T07:03:33.066Z,1027.98
2022-11-26T07:04:28.247Z,1028
2022-11-26T07:05:28.261Z,1027.97
2022-11-26T07:06:28.242Z,1027.94
2022-11-26T07:07:28.303Z,1027.98
2022-11-26T07:08:28.244Z,1027.98
2022-11-26T07:09:28.247Z,1027.98
2022-11-26T07:10:28.263Z,1028.04
2022-11-26T07:11:28.250Z,1028.01
2022-11-26T07:12:28.231Z,1028.07
2022-11-26T07:13:28.247Z,1028.1
2022-11-26T07:14:28.251Z,1028.07
2022-11-26T07:15:28.254Z,1028.09
2022-11-26T07:16:28.334Z,1028.03
2022-11-26T07:17:28.250Z,1028.09
2022-11-26T07:18:28.254Z,1028.07
2022-11-26T07:19:28.251Z,1028.1
2022-11-26T07:20:28.268Z,1028.09
2022-11-26T07:21:28.253Z,1028.18
2022-11-26T07:22:28.239Z,1028.17
2022-11-26T07:23:28.243Z,1028.14
2022-11-26T07:24:28.247Z,1028.17
2022-11-26T07:25:28.263Z,1028.17
2022-11-26T07:26:28.255Z,1028.21
2022-11-26T07:27:28.254Z,1028.22
2022-11-26T07:28:28.252Z,1028.26
2022-11-26T07:29:28.254Z,1028.24
2022-11-26T07:30:28.261Z,1028.29
2022-11-26T07:31:28.261Z,1028.29
2022-11-26T07:32:28.252Z,1028.23
2022-11-26T07:33:28.249Z,1028.27
2022-11-26T07:34:28.254Z,1028.31
2022-11-26T07:35:28.274Z,1028.33
2022-11-26T07:36:28.238Z,1028.32
2022-11-26T07:37:28.236Z,1028.32
2022-11-26T07:38:28.236Z,1028.34
2022-11-26T07:39:28.236Z,1028.37
2022-11-26T07:40:28.327Z,1028.35
2022-11-26T07:41:28.233Z,1028.34
2022-11-26T07:42:28.248Z,1028.38
2022-11-26T07:43:28.230Z,1028.37
2022-11-26T07:44:28.230Z,1028.44
2022-11-26T07:45:28.260Z,1028.41
2022-11-26T07:46:28.373Z,1028.4
2022-11-26T07:47:28.235Z,1028.4
2022-11-26T07:48:28.238Z,1028.46
2022-11-26T07:49:28.239Z,1028.47
2022-11-26T07:50:28.319Z,1028.45
2022-11-26T07:51:28.233Z,1028.47
2022-11-26T07:52:28.238Z,1028.52
2022-11-26T07:53:28.238Z,1028.52
2022-11-26T07:54:28.234Z,1028.54
2022-11-26T07:55:28.262Z,1028.52
2022-11-26T07:56:28.244Z,1028.54
2022-11-26T07:57:28.232Z,1028.55
2022-11-26T07:58:28.243Z,1028.6
2022-11-26T07:59:28.260Z,1028.6
2022-11-26T08:00:28.351Z,1028.62
2022-11-26T08:01:28.277Z,1028.59
2022-11-26T08:02:28.336Z,1028.56
2022-11-26T08:03:28.254Z,1028.62
2022-11-26T08:04:28.249Z,1028.6
2022-11-26T08:05:28.257Z,1028.61
2022-11-26T08:06:28.242Z,1028.64
2022-11-26T08:07:29.552Z,1028.68
2022-11-26T08:08:28.261Z,1028.65
2022-11-26T08:09:28.238Z,1028.62
2022-11-26T08:10:28.251Z,1028.64
2022-11-26T08:11:28.251Z,1028.69
2022-11-26T08:12:28.255Z,1028.68
2022-11-26T08:13:28.279Z,1028.55
2022-11-26T08:14:28.247Z,1028.64
2022-11-26T08:15:28.259Z,1028.66
2022-11-26T08:16:29.173Z,1028.67
2022-11-26T08:17:28.259Z,1028.68
2022-11-26T08:18:28.249Z,1028.67
2022-11-26T08:19:28.254Z,1028.68
2022-11-26T08:20:29.211Z,1028.73
2022-11-26T08:21:28.234Z,1028.77
2022-11-26T08:22:28.248Z,1028.76
2022-11-26T08:23:28.259Z,1028.75
2022-11-26T08:24:28.253Z,1028.75
2022-11-26T08:25:28.259Z,1028.75
2022-11-26T08:26:34.721Z,1028.79
2022-11-26T08:27:28.241Z,1028.78
2022-11-26T08:28:28.240Z,1028.78
2022-11-26T08:29:28.250Z,1028.84
2022-11-26T08:30:28.276Z,1028.79
2022-11-26T08:31:28.556Z,1028.82
2022-11-26T08:32:28.244Z,1028.85
2022-11-26T08:33:28.245Z,1028.87
2022-11-26T08:34:28.247Z,1028.84
2022-11-26T08:35:51.283Z,1028.8
2022-11-26T08:36:28.253Z,1028.81
2022-11-26T08:37:28.253Z,1028.87
2022-11-26T08:38:28.232Z,1028.84
2022-11-26T08:39:28.248Z,1028.74
2022-11-26T08:40:28.262Z,1028.92
2022-11-26T08:41:28.247Z,1028.86
2022-11-26T08:42:28.255Z,1028.95
2022-11-26T08:43:39.811Z,1028.96
2022-11-26T08:44:28.260Z,1028.93
2022-11-26T08:45:28.260Z,1028.94
2022-11-26T08:46:28.321Z,1028.95
2022-11-26T08:47:28.253Z,1029
2022-11-26T08:48:31.799Z,1028.98
2022-11-26T08:49:28.261Z,1029.01
2022-11-26T08:50:28.301Z,1028.96
2022-11-26T08:51:28.290Z,1028.99
2022-11-26T08:52:28.227Z,1029.02
2022-11-26T08:53:28.242Z,1029.04
2022-11-26T08:54:28.235Z,1029.05
2022-11-26T08:55:53.372Z,1029.02
2022-11-26T08:56:28.229Z,1029.04
2022-11-26T08:57:28.230Z,1028.99
2022-11-26T08:58:28.230Z,1028.96
2022-11-26T08:59:28.237Z,1029.05
2022-11-26T09:00:28.259Z,1029.03
2022-11-26T09:01:28.281Z,1029.09
2022-11-26T09:02:28.232Z,1029.02
2022-11-26T09:03:28.324Z,1029.03
2022-11-26T09:04:28.234Z,1029.04
2022-11-26T09:05:28.265Z,1029.07
2022-11-26T09:06:28.235Z,1029.09
2022-11-26T09:07:28.294Z,1029.09
2022-11-26T09:08:28.235Z,1029.1
2022-11-26T09:09:28.248Z,1029.13
2022-11-26T09:10:28.264Z,1029.14
2022-11-26T09:11:28.242Z,1029.21
2022-11-26T09:12:28.248Z,1029.21
2022-11-26T09:13:28.263Z,1029.24
2022-11-26T09:14:28.333Z,1029.23
2022-11-26T09:15:28.261Z,1029.26
2022-11-26T09:16:28.325Z,1029.24
2022-11-26T09:17:28.246Z,1029.3
2022-11-26T09:18:28.239Z,1029.24
2022-11-26T09:19:28.246Z,1029.32
2022-11-26T09:20:28.269Z,1029.3
2022-11-26T09:21:28.248Z,1029.34
2022-11-26T09:22:28.267Z,1029.36
2022-11-26T09:23:28.259Z,1029.41
2022-11-26T09:24:28.249Z,1029.43
2022-11-26T09:25:28.288Z,1029.42
2022-11-26T09:26:28.249Z,1029.46
2022-11-26T09:27:28.249Z,1029.46
2022-11-26T09:28:28.311Z,1029.46
2022-11-26T09:29:28.255Z,1029.4
2022-11-26T09:30:28.259Z,1029.5
2022-11-26T09:31:28.330Z,1029.48
2022-11-26T09:32:32.593Z,1029.49
2022-11-26T09:33:28.244Z,1029.51
2022-11-26T09:34:28.233Z,1029.55
2022-11-26T09:35:28.262Z,1029.54
2022-11-26T09:36:28.249Z,1029.59
2022-11-26T09:37:28.257Z,1029.55
2022-11-26T09:38:28.257Z,1029.55
2022-11-26T09:39:28.252Z,1029.5
2022-11-26T09:40:28.268Z,1029.58
2022-11-26T09:41:28.239Z,1029.55
2022-11-26T09:42:28.250Z,1029.61
2022-11-26T09:43:28.247Z,1029.55
2022-11-26T09:44:28.245Z,1029.63
2022-11-26T09:45:28.301Z,1029.53
2022-11-26T09:46:40.549Z,1029.6
2022-11-26T09:47:28.263Z,1029.6
2022-11-26T09:48:28.282Z,1029.6
2022-11-26T09:49:28.253Z,1029.64
2022-11-26T09:50:28.273Z,1029.58
2022-11-26T09:51:28.239Z,1029.65
2022-11-26T09:52:33.926Z,1029.64
2022-11-26T09:53:32.730Z,1029.64
2022-11-26T09:54:32.719Z,1029.62
2022-11-26T09:55:32.751Z,1029.66
2022-11-26T09:56:32.701Z,1029.62
2022-11-26T09:57:32.713Z,1029.7
2022-11-26T09:58:32.707Z,1029.7
2022-11-26T09:59:32.728Z,1029.65
2022-11-26T10:00:32.699Z,1029.75
2022-11-26T10:01:32.777Z,1029.77
2022-11-26T10:02:32.745Z,1029.79
2022-11-26T10:03:32.709Z,1029.77
2022-11-26T10:04:32.709Z,1029.78
2022-11-26T10:05:32.724Z,1029.77
2022-11-26T10:06:32.707Z,1029.71
2022-11-26T10:07:32.799Z,1029.75
2022-11-26T10:08:32.709Z,1029.77
2022-11-26T10:09:32.702Z,1029.77
2022-11-26T10:10:32.739Z,1029.74
2022-11-26T10:11:32.713Z,1029.76
2022-11-26T10:12:34.088Z,1029.79
2022-11-26T10:13:32.710Z,1029.78
2022-11-26T10:14:32.705Z,1029.8
2022-11-26T10:15:32.744Z,1029.79
2022-11-26T10:16:32.765Z,1029.73
2022-11-26T10:17:32.753Z,1029.74
2022-11-26T10:18:32.697Z,1029.75
2022-11-26T10:19:32.702Z,1029.72
2022-11-26T10:20:32.700Z,1029.74
2022-11-26T10:21:51.754Z,1029.69
2022-11-26T10:22:32.715Z,1029.73
2022-11-26T10:23:32.712Z,1029.79
2022-11-26T10:24:32.697Z,1029.75
2022-11-26T10:25:32.721Z,1029.74
2022-11-26T10:26:32.705Z,1029.79
2022-11-26T10:27:32.688Z,1029.77
2022-11-26T10:28:32.696Z,1029.76
2022-11-26T10:29:32.692Z,1029.71
2022-11-26T10:30:32.699Z,1029.73
2022-11-26T10:31:32.819Z,1029.75
2022-11-26T10:32:32.696Z,1029.74
2022-11-26T10:33:32.686Z,1029.77
2022-11-26T10:34:38.722Z,1029.85
2022-11-26T10:35:32.714Z,1029.82
2022-11-26T10:36:32.693Z,1029.83
2022-11-26T10:37:32.704Z,1029.83
2022-11-26T10:38:32.700Z,1029.88
2022-11-26T10:39:32.701Z,1029.77
2022-11-26T10:40:32.705Z,1029.81
2022-11-26T10:41:32.681Z,1029.88
2022-11-26T10:42:32.678Z,1029.88
2022-11-26T10:43:32.683Z,1029.88
2022-11-26T10:44:32.683Z,1029.91
2022-11-26T10:45:32.694Z,1029.82
2022-11-26T10:46:32.801Z,1029.91
2022-11-26T10:47:32.684Z,1029.85
2022-11-26T10:48:32.679Z,1029.94
2022-11-26T10:49:32.713Z,1029.98
2022-11-26T10:50:47.293Z,1029.94
2022-11-26T10:51:32.686Z,1029.94
2022-11-26T10:52:32.686Z,1029.92
2022-11-26T10:53:32.679Z,1029.97
2022-11-26T10:54:32.690Z,1029.95
2022-11-26T10:55:32.703Z,1029.89
2022-11-26T10:56:32.734Z,1029.85
2022-11-26T10:57:32.697Z,1029.86
2022-11-26T10:58:32.682Z,1029.86
2022-11-26T10:59:32.681Z,1029.87
2022-11-26T11:00:32.749Z,1029.84
2022-11-26T11:01:32.736Z,1029.91
2022-11-26T11:02:32.816Z,1029.85
2022-11-26T11:04:06.249Z,1029.87
2022-11-26T11:04:32.708Z,1029.9
2022-11-26T11:05:32.715Z,1029.91
2022-11-26T11:06:32.693Z,1029.85
2022-11-26T11:07:32.803Z,1029.94
2022-11-26T11:08:32.693Z,1029.99
2022-11-26T11:09:32.691Z,1029.98
2022-11-26T11:10:32.695Z,1029.98
2022-11-26T11:11:32.695Z,1030
2022-11-26T11:12:32.681Z,1030.05
2022-11-26T11:13:32.699Z,1029.94
2022-11-26T11:14:32.697Z,1030.03
2022-11-26T11:15:32.714Z,1030.07
2022-11-26T11:16:32.737Z,1030.06
2022-11-26T11:17:32.702Z,1030.06
2022-11-26T11:18:32.698Z,1030.1
2022-11-26T11:19:32.689Z,1030.12
2022-11-26T11:20:32.702Z,1030.12
2022-11-26T11:21:32.703Z,1030.12
2022-11-26T11:22:32.693Z,1030.12
2022-11-26T11:24:00.021Z,1030.03
2022-11-26T11:24:32.688Z,1030.13
2022-11-26T11:25:32.715Z,1030.15
2022-11-26T11:26:32.697Z,1030.12
2022-11-26T11:27:32.697Z,1030.11
2022-11-26T11:28:32.678Z,1030.12
2022-11-26T11:29:32.695Z,1030.19
2022-11-26T11:30:32.706Z,1030.19
2022-11-26T11:31:32.788Z,1030.2
2022-11-26T11:32:32.697Z,1030.19
2022-11-26T11:33:32.695Z,1030.16
2022-11-26T11:34:32.695Z,1030.16
2022-11-26T11:35:32.704Z,1030.23
2022-11-26T11:36:32.693Z,1030.28
2022-11-26T11:37:32.699Z,1030.26
2022-11-26T11:38:32.692Z,1030.28
2022-11-26T11:39:32.691Z,1030.27
2022-11-26T11:40:32.704Z,1030.32
2022-11-26T11:41:32.703Z,1030.25
2022-11-26T11:42:32.696Z,1030.29
2022-11-26T11:43:32.695Z,1030.25
2022-11-26T11:44:32.701Z,1030.3
2022-11-26T11:45:32.771Z,1030.28
2022-11-26T11:46:32.679Z,1030.31
2022-11-26T11:47:32.695Z,1030.29
2022-11-26T11:48:32.702Z,1030.34
2022-11-26T11:49:32.673Z,1030.31
2022-11-26T11:50:32.702Z,1030.31
2022-11-26T11:51:32.690Z,1030.28
2022-11-26T11:52:32.674Z,1030.37
2022-11-26T11:53:32.687Z,1030.36
2022-11-26T11:54:32.690Z,1030.38
2022-11-26T11:55:32.845Z,1030.39
2022-11-26T11:56:32.675Z,1030.38
2022-11-26T11:57:32.673Z,1030.37
2022-11-26T11:58:32.672Z,1030.39
2022-11-26T11:59:32.690Z,1030.41
2022-11-26T12:00:32.700Z,1030.4
2022-11-26T12:01:32.684Z,1030.39
2022-11-26T12:02:32.749Z,1030.41
2022-11-26T12:03:32.679Z,1030.41
2022-11-26T12:04:32.736Z,1030.43
2022-11-26T12:05:32.704Z,1030.47
2022-11-26T12:06:32.686Z,1030.47
2022-11-26T12:07:32.808Z,1030.45
2022-11-26T12:08:32.685Z,1030.45
2022-11-26T12:09:32.688Z,1030.44
2022-11-26T12:10:35.627Z,1030.42